sensor_id;sensor_type;location;lat;lon;timestamp;temperature;humidity
21259;DHT22;10787;53.364;-1.480;2024-03-02T00:01:24;2.70;99.90
21259;DHT22;10787;53.364;-1.480;2024-03-02T00:04:08;2.70;99.90
21259;DHT22;10787;53.364;-1.480;2024-03-02T00:06:53;2.70;99.90
21259;DHT22;10787;53.364;-1.480;2024-03-02T00:09:38;2.80;99.90
21259;DHT22;10787;53.364;-1.480;2024-03-02T00:12:23;2.80;99.90
21259;DHT22;10787;53.364;-1.480;2024-03-02T00:18:27;2.80;99.90
21259;DHT22;10787;53.364;-1.480;2024-03-02T00:21:14;2.80;99.90
21259;DHT22;10787;53.364;-1.480;2024-03-02T00:24:01;2.80;99.90
21259;DHT22;10787;53.364;-1.480;2024-03-02T00:26:49;2.90;99.90
21259;DHT22;10787;53.364;-1.480;2024-03-02T00:29:35;2.90;99.90
21259;DHT22;10787;53.364;-1.480;2024-03-02T00:32:19;2.90;99.90
21259;DHT22;10787;53.364;-1.480;2024-03-02T00:35:05;2.90;99.90
21259;DHT22;10787;53.364;-1.480;2024-03-02T00:37:49;3.00;99.90
21259;DHT22;10787;53.364;-1.480;2024-03-02T00:40:34;3.00;99.90
21259;DHT22;10787;53.364;-1.480;2024-03-02T00:46:41;3.00;99.90
21259;DHT22;10787;53.364;-1.480;2024-03-02T00:49:26;3.10;99.90
21259;DHT22;10787;53.364;-1.480;2024-03-02T00:52:12;3.10;99.90
21259;DHT22;10787;53.364;-1.480;2024-03-02T00:54:57;3.10;99.90
21259;DHT22;10787;53.364;-1.480;2024-03-02T00:57:42;3.20;99.90
21259;DHT22;10787;53.364;-1.480;2024-03-02T01:00:27;3.20;99.90
21259;DHT22;10787;53.364;-1.480;2024-03-02T01:03:12;3.20;99.90
21259;DHT22;10787;53.364;-1.480;2024-03-02T01:05:56;3.20;99.90
21259;DHT22;10787;53.364;-1.480;2024-03-02T01:08:41;3.30;99.90
21259;DHT22;10787;53.364;-1.480;2024-03-02T01:11:25;3.30;99.90
21259;DHT22;10787;53.364;-1.480;2024-03-02T01:14:10;3.30;99.90
21259;DHT22;10787;53.364;-1.480;2024-03-02T01:16:54;3.30;99.90
21259;DHT22;10787;53.364;-1.480;2024-03-02T01:19:39;3.30;99.90
21259;DHT22;10787;53.364;-1.480;2024-03-02T01:22:25;3.40;99.90
21259;DHT22;10787;53.364;-1.480;2024-03-02T01:25:10;3.40;99.90
21259;DHT22;10787;53.364;-1.480;2024-03-02T01:27:54;3.40;99.90
21259;DHT22;10787;53.364;-1.480;2024-03-02T01:30:39;3.50;99.90
21259;DHT22;10787;53.364;-1.480;2024-03-02T01:33:23;3.50;99.90
21259;DHT22;10787;53.364;-1.480;2024-03-02T01:36:08;3.60;99.90
21259;DHT22;10787;53.364;-1.480;2024-03-02T01:38:52;3.50;99.90
21259;DHT22;10787;53.364;-1.480;2024-03-02T01:41:37;3.50;99.90
21259;DHT22;10787;53.364;-1.480;2024-03-02T01:44:21;3.50;99.90
21259;DHT22;10787;53.364;-1.480;2024-03-02T01:47:06;3.50;99.90
21259;DHT22;10787;53.364;-1.480;2024-03-02T01:49:51;3.60;99.90
21259;DHT22;10787;53.364;-1.480;2024-03-02T01:52:35;3.60;99.90
21259;DHT22;10787;53.364;-1.480;2024-03-02T01:55:20;3.60;99.90
21259;DHT22;10787;53.364;-1.480;2024-03-02T01:58:04;3.60;99.90
21259;DHT22;10787;53.364;-1.480;2024-03-02T02:00:48;3.50;99.90
21259;DHT22;10787;53.364;-1.480;2024-03-02T02:03:34;3.50;99.90
21259;DHT22;10787;53.364;-1.480;2024-03-02T02:06:18;3.50;99.90
21259;DHT22;10787;53.364;-1.480;2024-03-02T02:09:03;3.50;99.90
21259;DHT22;10787;53.364;-1.480;2024-03-02T02:11:47;3.60;99.90
21259;DHT22;10787;53.364;-1.480;2024-03-02T02:14:32;3.60;99.90
21259;DHT22;10787;53.364;-1.480;2024-03-02T02:17:16;3.60;99.90
21259;DHT22;10787;53.364;-1.480;2024-03-02T02:20:01;3.60;99.90
21259;DHT22;10787;53.364;-1.480;2024-03-02T02:22:56;3.60;99.90
21259;DHT22;10787;53.364;-1.480;2024-03-02T02:25:40;3.60;99.90
21259;DHT22;10787;53.364;-1.480;2024-03-02T02:28:24;3.60;99.90
21259;DHT22;10787;53.364;-1.480;2024-03-02T02:31:08;3.70;99.90
21259;DHT22;10787;53.364;-1.480;2024-03-02T02:33:53;3.70;99.90
21259;DHT22;10787;53.364;-1.480;2024-03-02T02:36:38;3.70;99.90
21259;DHT22;10787;53.364;-1.480;2024-03-02T02:39:24;3.70;99.90
21259;DHT22;10787;53.364;-1.480;2024-03-02T02:42:08;3.70;99.90
21259;DHT22;10787;53.364;-1.480;2024-03-02T02:44:53;3.70;99.90
21259;DHT22;10787;53.364;-1.480;2024-03-02T02:47:37;3.60;99.90
21259;DHT22;10787;53.364;-1.480;2024-03-02T02:50:21;3.60;99.90
21259;DHT22;10787;53.364;-1.480;2024-03-02T02:53:06;3.60;99.90
21259;DHT22;10787;53.364;-1.480;2024-03-02T02:55:53;3.60;99.90
21259;DHT22;10787;53.364;-1.480;2024-03-02T02:58:39;3.60;99.90
21259;DHT22;10787;53.364;-1.480;2024-03-02T03:01:23;3.60;99.90
21259;DHT22;10787;53.364;-1.480;2024-03-02T03:04:08;3.60;99.90
21259;DHT22;10787;53.364;-1.480;2024-03-02T03:06:52;3.60;99.90
21259;DHT22;10787;53.364;-1.480;2024-03-02T03:09:37;3.60;99.90
21259;DHT22;10787;53.364;-1.480;2024-03-02T03:12:22;3.70;99.90
21259;DHT22;10787;53.364;-1.480;2024-03-02T03:15:07;3.70;99.90
21259;DHT22;10787;53.364;-1.480;2024-03-02T03:17:52;3.70;99.90
21259;DHT22;10787;53.364;-1.480;2024-03-02T03:20:36;3.70;99.90
21259;DHT22;10787;53.364;-1.480;2024-03-02T03:23:20;3.80;99.90
21259;DHT22;10787;53.364;-1.480;2024-03-02T03:26:05;3.70;99.90
21259;DHT22;10787;53.364;-1.480;2024-03-02T03:28:49;3.80;99.90
21259;DHT22;10787;53.364;-1.480;2024-03-02T03:31:34;3.80;99.90
21259;DHT22;10787;53.364;-1.480;2024-03-02T03:34:17;3.80;99.90
21259;DHT22;10787;53.364;-1.480;2024-03-02T03:37:02;3.80;99.90
21259;DHT22;10787;53.364;-1.480;2024-03-02T03:39:47;3.80;99.90
21259;DHT22;10787;53.364;-1.480;2024-03-02T03:42:31;3.80;99.90
21259;DHT22;10787;53.364;-1.480;2024-03-02T03:45:15;3.80;99.90
21259;DHT22;10787;53.364;-1.480;2024-03-02T03:47:59;3.80;99.90
21259;DHT22;10787;53.364;-1.480;2024-03-02T03:50:43;3.80;99.90
21259;DHT22;10787;53.364;-1.480;2024-03-02T03:53:27;3.80;99.90
21259;DHT22;10787;53.364;-1.480;2024-03-02T03:56:11;3.80;99.90
21259;DHT22;10787;53.364;-1.480;2024-03-02T03:58:56;3.80;99.90
21259;DHT22;10787;53.364;-1.480;2024-03-02T04:01:40;3.80;99.90
21259;DHT22;10787;53.364;-1.480;2024-03-02T04:04:24;3.80;99.90
21259;DHT22;10787;53.364;-1.480;2024-03-02T04:07:09;3.80;99.90
21259;DHT22;10787;53.364;-1.480;2024-03-02T04:09:53;3.80;99.90
21259;DHT22;10787;53.364;-1.480;2024-03-02T04:12:37;3.80;99.90
21259;DHT22;10787;53.364;-1.480;2024-03-02T04:15:22;3.80;99.90
21259;DHT22;10787;53.364;-1.480;2024-03-02T04:18:07;3.70;99.90
21259;DHT22;10787;53.364;-1.480;2024-03-02T04:20:51;3.80;99.90
21259;DHT22;10787;53.364;-1.480;2024-03-02T04:23:35;3.80;99.90
21259;DHT22;10787;53.364;-1.480;2024-03-02T04:26:19;3.80;99.90
21259;DHT22;10787;53.364;-1.480;2024-03-02T04:29:06;3.80;99.90
21259;DHT22;10787;53.364;-1.480;2024-03-02T04:31:50;3.80;99.90
21259;DHT22;10787;53.364;-1.480;2024-03-02T04:34:34;3.80;99.90
21259;DHT22;10787;53.364;-1.480;2024-03-02T04:37:18;3.90;99.90
21259;DHT22;10787;53.364;-1.480;2024-03-02T04:40:02;3.90;99.90
21259;DHT22;10787;53.364;-1.480;2024-03-02T04:42:46;3.90;99.90
21259;DHT22;10787;53.364;-1.480;2024-03-02T04:45:30;3.90;99.90
21259;DHT22;10787;53.364;-1.480;2024-03-02T04:48:15;3.80;99.90
21259;DHT22;10787;53.364;-1.480;2024-03-02T04:50:59;3.80;99.90
21259;DHT22;10787;53.364;-1.480;2024-03-02T04:53:44;3.80;99.90
21259;DHT22;10787;53.364;-1.480;2024-03-02T04:56:28;3.80;99.90
21259;DHT22;10787;53.364;-1.480;2024-03-02T04:59:17;3.80;99.90
21259;DHT22;10787;53.364;-1.480;2024-03-02T05:02:01;3.80;99.90
21259;DHT22;10787;53.364;-1.480;2024-03-02T05:04:46;3.80;99.90
21259;DHT22;10787;53.364;-1.480;2024-03-02T05:07:32;3.80;99.90
21259;DHT22;10787;53.364;-1.480;2024-03-02T05:10:16;3.80;99.90
21259;DHT22;10787;53.364;-1.480;2024-03-02T05:13:00;3.80;99.90
21259;DHT22;10787;53.364;-1.480;2024-03-02T05:15:44;3.80;99.90
21259;DHT22;10787;53.364;-1.480;2024-03-02T05:18:29;3.80;99.90
21259;DHT22;10787;53.364;-1.480;2024-03-02T05:21:13;3.80;99.90
21259;DHT22;10787;53.364;-1.480;2024-03-02T05:23:58;3.80;99.90
21259;DHT22;10787;53.364;-1.480;2024-03-02T05:26:43;3.80;99.90
21259;DHT22;10787;53.364;-1.480;2024-03-02T05:29:27;3.80;99.90
21259;DHT22;10787;53.364;-1.480;2024-03-02T05:32:11;3.80;99.90
21259;DHT22;10787;53.364;-1.480;2024-03-02T05:34:55;3.80;99.90
21259;DHT22;10787;53.364;-1.480;2024-03-02T05:37:39;3.80;99.90
21259;DHT22;10787;53.364;-1.480;2024-03-02T05:40:23;3.80;99.90
21259;DHT22;10787;53.364;-1.480;2024-03-02T05:43:07;3.80;99.90
21259;DHT22;10787;53.364;-1.480;2024-03-02T05:45:52;3.80;99.90
21259;DHT22;10787;53.364;-1.480;2024-03-02T05:48:36;3.80;99.90
21259;DHT22;10787;53.364;-1.480;2024-03-02T05:51:20;3.80;99.90
21259;DHT22;10787;53.364;-1.480;2024-03-02T05:54:05;3.80;99.90
21259;DHT22;10787;53.364;-1.480;2024-03-02T05:56:49;3.80;99.90
21259;DHT22;10787;53.364;-1.480;2024-03-02T05:59:33;3.80;99.90
21259;DHT22;10787;53.364;-1.480;2024-03-02T06:02:18;3.80;99.90
21259;DHT22;10787;53.364;-1.480;2024-03-02T06:05:02;3.80;99.90
21259;DHT22;10787;53.364;-1.480;2024-03-02T06:07:47;3.80;99.90
21259;DHT22;10787;53.364;-1.480;2024-03-02T06:10:31;3.80;99.90
21259;DHT22;10787;53.364;-1.480;2024-03-02T06:13:15;3.80;99.90
21259;DHT22;10787;53.364;-1.480;2024-03-02T06:16:00;3.80;99.90
21259;DHT22;10787;53.364;-1.480;2024-03-02T06:18:45;3.80;99.90
21259;DHT22;10787;53.364;-1.480;2024-03-02T06:21:29;3.80;99.90
21259;DHT22;10787;53.364;-1.480;2024-03-02T06:24:13;3.80;99.90
21259;DHT22;10787;53.364;-1.480;2024-03-02T06:26:58;3.80;99.90
21259;DHT22;10787;53.364;-1.480;2024-03-02T06:29:42;3.80;99.90
21259;DHT22;10787;53.364;-1.480;2024-03-02T06:32:27;3.80;99.90
21259;DHT22;10787;53.364;-1.480;2024-03-02T06:35:12;3.80;99.90
21259;DHT22;10787;53.364;-1.480;2024-03-02T06:37:56;3.80;99.90
21259;DHT22;10787;53.364;-1.480;2024-03-02T06:40:41;3.90;99.90
21259;DHT22;10787;53.364;-1.480;2024-03-02T06:43:26;3.90;99.90
21259;DHT22;10787;53.364;-1.480;2024-03-02T06:46:10;3.90;99.90
21259;DHT22;10787;53.364;-1.480;2024-03-02T06:48:58;3.90;99.90
21259;DHT22;10787;53.364;-1.480;2024-03-02T06:51:43;3.90;99.90
21259;DHT22;10787;53.364;-1.480;2024-03-02T06:54:27;3.90;99.90
21259;DHT22;10787;53.364;-1.480;2024-03-02T06:57:12;3.90;99.90
21259;DHT22;10787;53.364;-1.480;2024-03-02T06:59:56;3.90;99.90
21259;DHT22;10787;53.364;-1.480;2024-03-02T07:02:42;3.90;99.90
21259;DHT22;10787;53.364;-1.480;2024-03-02T07:05:26;3.90;99.90
21259;DHT22;10787;53.364;-1.480;2024-03-02T07:08:10;3.90;99.90
21259;DHT22;10787;53.364;-1.480;2024-03-02T07:10:55;4.00;99.90
21259;DHT22;10787;53.364;-1.480;2024-03-02T07:13:39;4.00;99.90
21259;DHT22;10787;53.364;-1.480;2024-03-02T07:16:23;4.00;99.90
21259;DHT22;10787;53.364;-1.480;2024-03-02T07:19:14;4.00;99.90
21259;DHT22;10787;53.364;-1.480;2024-03-02T07:21:58;4.10;99.90
21259;DHT22;10787;53.364;-1.480;2024-03-02T07:24:43;4.10;99.90
21259;DHT22;10787;53.364;-1.480;2024-03-02T07:27:27;4.10;99.90
21259;DHT22;10787;53.364;-1.480;2024-03-02T07:30:14;4.10;99.90
21259;DHT22;10787;53.364;-1.480;2024-03-02T07:33:00;4.10;99.90
21259;DHT22;10787;53.364;-1.480;2024-03-02T07:35:44;4.10;99.90
21259;DHT22;10787;53.364;-1.480;2024-03-02T07:38:31;4.10;99.90
21259;DHT22;10787;53.364;-1.480;2024-03-02T07:41:17;4.10;99.90
21259;DHT22;10787;53.364;-1.480;2024-03-02T07:44:02;4.20;99.90
21259;DHT22;10787;53.364;-1.480;2024-03-02T07:46:47;4.20;99.90
21259;DHT22;10787;53.364;-1.480;2024-03-02T07:49:34;4.20;99.90
21259;DHT22;10787;53.364;-1.480;2024-03-02T07:52:18;4.20;99.90
21259;DHT22;10787;53.364;-1.480;2024-03-02T07:55:03;4.20;99.90
21259;DHT22;10787;53.364;-1.480;2024-03-02T07:57:48;4.20;99.90
21259;DHT22;10787;53.364;-1.480;2024-03-02T08:00:32;4.20;99.90
21259;DHT22;10787;53.364;-1.480;2024-03-02T08:03:17;4.20;99.90
21259;DHT22;10787;53.364;-1.480;2024-03-02T08:06:01;4.20;99.90
21259;DHT22;10787;53.364;-1.480;2024-03-02T08:08:46;4.30;99.90
21259;DHT22;10787;53.364;-1.480;2024-03-02T08:11:31;4.30;99.90
21259;DHT22;10787;53.364;-1.480;2024-03-02T08:14:15;4.30;99.90
21259;DHT22;10787;53.364;-1.480;2024-03-02T08:16:59;4.30;99.90
21259;DHT22;10787;53.364;-1.480;2024-03-02T08:19:45;4.30;99.90
21259;DHT22;10787;53.364;-1.480;2024-03-02T08:22:32;4.40;99.90
21259;DHT22;10787;53.364;-1.480;2024-03-02T08:25:16;4.40;99.90
21259;DHT22;10787;53.364;-1.480;2024-03-02T08:28:01;4.40;99.90
21259;DHT22;10787;53.364;-1.480;2024-03-02T08:30:45;4.40;99.90
21259;DHT22;10787;53.364;-1.480;2024-03-02T08:33:30;4.40;99.90
21259;DHT22;10787;53.364;-1.480;2024-03-02T08:36:14;4.50;99.90
21259;DHT22;10787;53.364;-1.480;2024-03-02T08:38:58;4.50;99.90
21259;DHT22;10787;53.364;-1.480;2024-03-02T08:41:44;4.50;99.90
21259;DHT22;10787;53.364;-1.480;2024-03-02T08:44:29;4.60;99.90
21259;DHT22;10787;53.364;-1.480;2024-03-02T08:47:13;4.60;99.90
21259;DHT22;10787;53.364;-1.480;2024-03-02T08:49:58;4.60;99.90
21259;DHT22;10787;53.364;-1.480;2024-03-02T08:52:42;4.80;99.90
21259;DHT22;10787;53.364;-1.480;2024-03-02T08:55:27;4.90;99.90
21259;DHT22;10787;53.364;-1.480;2024-03-02T08:58:12;5.00;99.90
21259;DHT22;10787;53.364;-1.480;2024-03-02T09:00:56;5.00;99.90
21259;DHT22;10787;53.364;-1.480;2024-03-02T09:03:41;5.00;99.90
21259;DHT22;10787;53.364;-1.480;2024-03-02T09:06:28;5.00;99.90
21259;DHT22;10787;53.364;-1.480;2024-03-02T09:09:13;5.00;99.90
21259;DHT22;10787;53.364;-1.480;2024-03-02T09:11:57;5.00;99.90
21259;DHT22;10787;53.364;-1.480;2024-03-02T09:14:42;5.00;99.90
21259;DHT22;10787;53.364;-1.480;2024-03-02T09:17:26;5.00;99.90
21259;DHT22;10787;53.364;-1.480;2024-03-02T09:20:11;4.90;99.90
21259;DHT22;10787;53.364;-1.480;2024-03-02T09:22:55;5.00;99.90
21259;DHT22;10787;53.364;-1.480;2024-03-02T09:25:39;5.00;99.90
21259;DHT22;10787;53.364;-1.480;2024-03-02T09:28:24;5.20;99.90
21259;DHT22;10787;53.364;-1.480;2024-03-02T09:31:08;5.30;99.90
21259;DHT22;10787;53.364;-1.480;2024-03-02T09:33:52;5.40;99.90
21259;DHT22;10787;53.364;-1.480;2024-03-02T09:36:36;5.50;99.90
21259;DHT22;10787;53.364;-1.480;2024-03-02T09:39:20;5.50;99.90
21259;DHT22;10787;53.364;-1.480;2024-03-02T09:42:06;5.50;99.90
21259;DHT22;10787;53.364;-1.480;2024-03-02T09:44:50;5.50;99.90
21259;DHT22;10787;53.364;-1.480;2024-03-02T09:47:35;5.50;99.90
21259;DHT22;10787;53.364;-1.480;2024-03-02T09:50:19;5.40;99.90
21259;DHT22;10787;53.364;-1.480;2024-03-02T09:53:04;5.40;99.90
21259;DHT22;10787;53.364;-1.480;2024-03-02T09:55:49;5.40;99.90
21259;DHT22;10787;53.364;-1.480;2024-03-02T09:58:34;5.30;99.90
21259;DHT22;10787;53.364;-1.480;2024-03-02T10:01:18;5.30;99.90
21259;DHT22;10787;53.364;-1.480;2024-03-02T10:04:02;5.30;99.90
21259;DHT22;10787;53.364;-1.480;2024-03-02T10:07:09;5.30;99.90
21259;DHT22;10787;53.364;-1.480;2024-03-02T10:09:55;5.30;99.90
21259;DHT22;10787;53.364;-1.480;2024-03-02T10:12:39;5.30;99.90
21259;DHT22;10787;53.364;-1.480;2024-03-02T10:15:26;5.30;99.90
21259;DHT22;10787;53.364;-1.480;2024-03-02T10:18:10;5.40;99.90
21259;DHT22;10787;53.364;-1.480;2024-03-02T10:21:13;5.40;99.90
21259;DHT22;10787;53.364;-1.480;2024-03-02T10:24:07;5.50;99.90
21259;DHT22;10787;53.364;-1.480;2024-03-02T10:26:52;5.40;99.90
21259;DHT22;10787;53.364;-1.480;2024-03-02T10:29:41;5.40;99.90
21259;DHT22;10787;53.364;-1.480;2024-03-02T10:32:26;5.40;99.90
21259;DHT22;10787;53.364;-1.480;2024-03-02T10:35:10;5.50;99.90
21259;DHT22;10787;53.364;-1.480;2024-03-02T10:37:55;5.40;99.90
21259;DHT22;10787;53.364;-1.480;2024-03-02T10:40:39;5.50;99.90
21259;DHT22;10787;53.364;-1.480;2024-03-02T10:43:23;5.50;99.90
21259;DHT22;10787;53.364;-1.480;2024-03-02T10:46:08;5.50;99.90
21259;DHT22;10787;53.364;-1.480;2024-03-02T10:48:52;5.50;99.90
21259;DHT22;10787;53.364;-1.480;2024-03-02T10:51:36;5.60;99.90
21259;DHT22;10787;53.364;-1.480;2024-03-02T10:54:21;5.80;99.90
21259;DHT22;10787;53.364;-1.480;2024-03-02T10:57:11;5.90;99.90
21259;DHT22;10787;53.364;-1.480;2024-03-02T11:00:02;5.90;99.90
21259;DHT22;10787;53.364;-1.480;2024-03-02T11:02:51;5.90;99.90
21259;DHT22;10787;53.364;-1.480;2024-03-02T11:05:44;6.00;99.90
21259;DHT22;10787;53.364;-1.480;2024-03-02T11:08:29;6.00;99.90
21259;DHT22;10787;53.364;-1.480;2024-03-02T11:11:24;6.00;99.90
21259;DHT22;10787;53.364;-1.480;2024-03-02T11:14:16;6.00;99.90
21259;DHT22;10787;53.364;-1.480;2024-03-02T11:17:02;6.00;99.90
21259;DHT22;10787;53.364;-1.480;2024-03-02T11:19:48;6.10;99.90
21259;DHT22;10787;53.364;-1.480;2024-03-02T11:22:32;6.50;99.90
21259;DHT22;10787;53.364;-1.480;2024-03-02T11:25:27;6.80;99.90
21259;DHT22;10787;53.364;-1.480;2024-03-02T11:28:11;7.20;99.90
21259;DHT22;10787;53.364;-1.480;2024-03-02T11:30:56;7.40;99.90
21259;DHT22;10787;53.364;-1.480;2024-03-02T11:33:41;7.40;99.90
21259;DHT22;10787;53.364;-1.480;2024-03-02T11:36:25;7.40;99.90
21259;DHT22;10787;53.364;-1.480;2024-03-02T11:39:10;7.30;99.90
21259;DHT22;10787;53.364;-1.480;2024-03-02T11:41:58;7.30;99.90
21259;DHT22;10787;53.364;-1.480;2024-03-02T11:44:47;7.30;99.90
21259;DHT22;10787;53.364;-1.480;2024-03-02T11:47:32;7.30;99.90
21259;DHT22;10787;53.364;-1.480;2024-03-02T11:50:30;7.40;99.90
21259;DHT22;10787;53.364;-1.480;2024-03-02T11:53:15;7.40;99.90
21259;DHT22;10787;53.364;-1.480;2024-03-02T11:56:01;7.50;99.90
21259;DHT22;10787;53.364;-1.480;2024-03-02T11:58:46;7.60;99.90
21259;DHT22;10787;53.364;-1.480;2024-03-02T12:01:34;7.40;99.90
21259;DHT22;10787;53.364;-1.480;2024-03-02T12:04:18;7.30;99.90
21259;DHT22;10787;53.364;-1.480;2024-03-02T12:07:03;7.30;99.90
21259;DHT22;10787;53.364;-1.480;2024-03-02T12:09:48;7.30;99.90
21259;DHT22;10787;53.364;-1.480;2024-03-02T12:12:33;7.20;99.90
21259;DHT22;10787;53.364;-1.480;2024-03-02T12:15:17;7.20;99.90
21259;DHT22;10787;53.364;-1.480;2024-03-02T12:18:01;7.30;99.90
21259;DHT22;10787;53.364;-1.480;2024-03-02T12:20:46;7.30;99.90
21259;DHT22;10787;53.364;-1.480;2024-03-02T12:23:32;7.40;99.90
21259;DHT22;10787;53.364;-1.480;2024-03-02T12:26:17;7.50;99.90
21259;DHT22;10787;53.364;-1.480;2024-03-02T12:29:01;7.60;99.90
21259;DHT22;10787;53.364;-1.480;2024-03-02T12:31:45;7.70;99.90
21259;DHT22;10787;53.364;-1.480;2024-03-02T12:34:31;7.60;99.90
21259;DHT22;10787;53.364;-1.480;2024-03-02T12:37:16;7.60;99.90
21259;DHT22;10787;53.364;-1.480;2024-03-02T12:40:00;7.70;99.90
21259;DHT22;10787;53.364;-1.480;2024-03-02T12:42:46;7.90;99.90
21259;DHT22;10787;53.364;-1.480;2024-03-02T12:45:30;8.50;99.90
21259;DHT22;10787;53.364;-1.480;2024-03-02T12:48:14;9.10;99.90
21259;DHT22;10787;53.364;-1.480;2024-03-02T12:50:59;9.40;99.90
21259;DHT22;10787;53.364;-1.480;2024-03-02T12:53:43;9.90;99.90
21259;DHT22;10787;53.364;-1.480;2024-03-02T12:56:27;10.90;99.90
21259;DHT22;10787;53.364;-1.480;2024-03-02T12:59:41;11.80;99.90
21259;DHT22;10787;53.364;-1.480;2024-03-02T13:02:30;11.90;99.90
21259;DHT22;10787;53.364;-1.480;2024-03-02T13:05:14;11.40;99.90
21259;DHT22;10787;53.364;-1.480;2024-03-02T13:07:59;10.80;99.90
21259;DHT22;10787;53.364;-1.480;2024-03-02T13:10:59;10.20;99.90
21259;DHT22;10787;53.364;-1.480;2024-03-02T13:13:43;9.70;99.90
21259;DHT22;10787;53.364;-1.480;2024-03-02T13:16:28;9.30;99.90
21259;DHT22;10787;53.364;-1.480;2024-03-02T13:19:12;9.10;99.90
21259;DHT22;10787;53.364;-1.480;2024-03-02T13:21:57;9.00;99.90
21259;DHT22;10787;53.364;-1.480;2024-03-02T13:24:42;8.90;99.90
21259;DHT22;10787;53.364;-1.480;2024-03-02T13:27:26;8.80;99.90
21259;DHT22;10787;53.364;-1.480;2024-03-02T13:30:11;8.90;99.90
21259;DHT22;10787;53.364;-1.480;2024-03-02T13:32:55;9.90;99.90
21259;DHT22;10787;53.364;-1.480;2024-03-02T13:35:39;11.10;99.90
21259;DHT22;10787;53.364;-1.480;2024-03-02T13:38:24;11.40;99.90
21259;DHT22;10787;53.364;-1.480;2024-03-02T13:41:08;11.10;99.90
21259;DHT22;10787;53.364;-1.480;2024-03-02T13:43:52;10.70;99.90
21259;DHT22;10787;53.364;-1.480;2024-03-02T13:46:37;10.40;99.90
21259;DHT22;10787;53.364;-1.480;2024-03-02T13:49:21;10.30;99.90
21259;DHT22;10787;53.364;-1.480;2024-03-02T13:52:06;10.30;99.90
21259;DHT22;10787;53.364;-1.480;2024-03-02T13:55:00;10.40;99.90
21259;DHT22;10787;53.364;-1.480;2024-03-02T13:57:44;10.50;99.90
21259;DHT22;10787;53.364;-1.480;2024-03-02T14:00:30;10.60;99.90
21259;DHT22;10787;53.364;-1.480;2024-03-02T14:03:15;10.70;99.90
21259;DHT22;10787;53.364;-1.480;2024-03-02T14:05:59;10.60;99.90
21259;DHT22;10787;53.364;-1.480;2024-03-02T14:08:44;10.50;99.90
21259;DHT22;10787;53.364;-1.480;2024-03-02T14:11:29;10.40;99.90
21259;DHT22;10787;53.364;-1.480;2024-03-02T14:14:13;10.20;99.90
21259;DHT22;10787;53.364;-1.480;2024-03-02T14:16:58;10.10;99.90
21259;DHT22;10787;53.364;-1.480;2024-03-02T14:19:49;10.20;99.90
21259;DHT22;10787;53.364;-1.480;2024-03-02T14:22:34;10.30;99.90
21259;DHT22;10787;53.364;-1.480;2024-03-02T14:25:18;10.60;99.90
21259;DHT22;10787;53.364;-1.480;2024-03-02T14:28:03;10.90;99.90
21259;DHT22;10787;53.364;-1.480;2024-03-02T14:30:47;10.90;99.90
21259;DHT22;10787;53.364;-1.480;2024-03-02T14:33:32;10.60;99.90
21259;DHT22;10787;53.364;-1.480;2024-03-02T14:36:16;10.30;99.90
21259;DHT22;10787;53.364;-1.480;2024-03-02T14:39:00;9.90;99.90
21259;DHT22;10787;53.364;-1.480;2024-03-02T14:41:45;9.50;99.90
21259;DHT22;10787;53.364;-1.480;2024-03-02T14:44:29;9.40;99.90
21259;DHT22;10787;53.364;-1.480;2024-03-02T14:47:13;10.00;99.90
21259;DHT22;10787;53.364;-1.480;2024-03-02T14:49:58;10.60;99.90
21259;DHT22;10787;53.364;-1.480;2024-03-02T14:52:44;11.00;99.90
21259;DHT22;10787;53.364;-1.480;2024-03-02T14:55:29;10.90;99.90
21259;DHT22;10787;53.364;-1.480;2024-03-02T14:58:14;10.50;99.90
21259;DHT22;10787;53.364;-1.480;2024-03-02T15:01:00;10.20;99.90
21259;DHT22;10787;53.364;-1.480;2024-03-02T15:03:44;9.70;99.90
21259;DHT22;10787;53.364;-1.480;2024-03-02T15:06:28;9.00;99.90
21259;DHT22;10787;53.364;-1.480;2024-03-02T15:09:13;8.50;99.90
21259;DHT22;10787;53.364;-1.480;2024-03-02T15:11:57;7.90;99.90
21259;DHT22;10787;53.364;-1.480;2024-03-02T15:14:42;7.60;99.90
21259;DHT22;10787;53.364;-1.480;2024-03-02T15:17:46;7.30;99.90
21259;DHT22;10787;53.364;-1.480;2024-03-02T15:20:30;7.20;99.90
21259;DHT22;10787;53.364;-1.480;2024-03-02T15:23:15;7.20;99.90
21259;DHT22;10787;53.364;-1.480;2024-03-02T15:25:59;7.30;99.90
21259;DHT22;10787;53.364;-1.480;2024-03-02T15:28:43;7.70;99.90
21259;DHT22;10787;53.364;-1.480;2024-03-02T15:31:28;8.50;99.90
21259;DHT22;10787;53.364;-1.480;2024-03-02T15:34:13;9.00;99.90
21259;DHT22;10787;53.364;-1.480;2024-03-02T15:37:02;9.00;99.90
21259;DHT22;10787;53.364;-1.480;2024-03-02T15:39:51;8.70;99.90
21259;DHT22;10787;53.364;-1.480;2024-03-02T15:42:50;8.40;99.90
21259;DHT22;10787;53.364;-1.480;2024-03-02T15:45:35;8.20;99.90
21259;DHT22;10787;53.364;-1.480;2024-03-02T15:48:19;8.00;99.90
21259;DHT22;10787;53.364;-1.480;2024-03-02T15:51:04;7.90;99.90
21259;DHT22;10787;53.364;-1.480;2024-03-02T15:53:48;7.70;99.90
21259;DHT22;10787;53.364;-1.480;2024-03-02T15:56:33;7.70;99.90
21259;DHT22;10787;53.364;-1.480;2024-03-02T15:59:17;7.80;99.90
21259;DHT22;10787;53.364;-1.480;2024-03-02T16:02:02;7.60;99.90
21259;DHT22;10787;53.364;-1.480;2024-03-02T16:04:48;7.50;99.90
21259;DHT22;10787;53.364;-1.480;2024-03-02T16:07:32;7.30;99.90
21259;DHT22;10787;53.364;-1.480;2024-03-02T16:10:16;7.10;99.90
21259;DHT22;10787;53.364;-1.480;2024-03-02T16:13:00;7.00;99.90
21259;DHT22;10787;53.364;-1.480;2024-03-02T16:15:45;6.70;99.90
21259;DHT22;10787;53.364;-1.480;2024-03-02T16:18:30;6.50;99.90
21259;DHT22;10787;53.364;-1.480;2024-03-02T16:21:14;6.40;99.90
21259;DHT22;10787;53.364;-1.480;2024-03-02T16:23:58;6.30;99.90
21259;DHT22;10787;53.364;-1.480;2024-03-02T16:26:43;6.20;99.90
21259;DHT22;10787;53.364;-1.480;2024-03-02T16:29:27;6.20;99.90
21259;DHT22;10787;53.364;-1.480;2024-03-02T16:32:11;6.30;99.90
21259;DHT22;10787;53.364;-1.480;2024-03-02T16:34:56;6.30;99.90
21259;DHT22;10787;53.364;-1.480;2024-03-02T16:37:42;6.40;99.90
21259;DHT22;10787;53.364;-1.480;2024-03-02T16:40:26;6.50;99.90
21259;DHT22;10787;53.364;-1.480;2024-03-02T16:43:11;6.60;99.90
21259;DHT22;10787;53.364;-1.480;2024-03-02T16:45:56;6.60;99.90
21259;DHT22;10787;53.364;-1.480;2024-03-02T16:48:40;6.60;99.90
21259;DHT22;10787;53.364;-1.480;2024-03-02T16:51:25;6.70;99.90
21259;DHT22;10787;53.364;-1.480;2024-03-02T16:54:09;7.00;99.90
21259;DHT22;10787;53.364;-1.480;2024-03-02T16:56:53;7.40;99.90
21259;DHT22;10787;53.364;-1.480;2024-03-02T16:59:37;7.70;99.90
21259;DHT22;10787;53.364;-1.480;2024-03-02T17:02:22;7.80;99.90
21259;DHT22;10787;53.364;-1.480;2024-03-02T17:05:09;7.70;99.90
21259;DHT22;10787;53.364;-1.480;2024-03-02T17:07:53;7.40;99.90
21259;DHT22;10787;53.364;-1.480;2024-03-02T17:10:37;7.20;99.90
21259;DHT22;10787;53.364;-1.480;2024-03-02T17:13:22;7.00;99.90
21259;DHT22;10787;53.364;-1.480;2024-03-02T17:16:06;6.80;99.90
21259;DHT22;10787;53.364;-1.480;2024-03-02T17:18:51;6.70;99.90
21259;DHT22;10787;53.364;-1.480;2024-03-02T17:21:36;6.50;99.90
21259;DHT22;10787;53.364;-1.480;2024-03-02T17:24:20;6.40;99.90
21259;DHT22;10787;53.364;-1.480;2024-03-02T17:27:04;6.30;99.90
21259;DHT22;10787;53.364;-1.480;2024-03-02T17:29:49;6.20;99.90